First Step — WAC5546 — position and weather

sailwx.info

Track history (hours):
 
Tides and Currents Weather Stations Pressure Air Temp Water Temp Dewpoint Dewpoint Depression Visibility Wind Speed Wind Dir Waves Ship Positions

First Step

Owner: SCHOBER, ROBERT F, VILLANOVA, PA. More information available from US FCC via Universal Licensing System and Coast Guard Vessel Documentation Center.

Last reported at 2017-Sep-19 06:53 UTC. Time now 2017-Sep-19 17:05 UTC.
Position N 32°24' W 117°22'.

Type: Fishing. MMSI: 367042740.

Date/timePositionNaut miles runAvg speedWind from/ knotsBaromVisibWave heightAir tempDewpointWater temp
2017-Sep-19 06:53N 32°24' W 117°22'3 7.6
2017-Sep-19 06:29N 32°27' W 117°20'5 7.9
2017-Sep-19 05:54N 32°31' W 117°18'3 8.1
2017-Sep-19 05:30N 32°34' W 117°16'4 7.9
2017-Sep-19 05:00N 32°37' W 117°15'4 8.6
2017-Sep-19 04:30N 32°42' W 117°14'1 2.6
2017-Sep-19 03:57N 32°43' W 117°13'1 0.1
2017-Sep-18 15:55N 32°43' W 117°14'0 0.0
2017-Sep-18 15:25N 32°43' W 117°14'0 0.0
2017-Sep-18 14:38N 32°43' W 117°14'0 0.0
2017-Sep-18 14:29N 32°43' W 117°14'0 0.0
2017-Sep-18 13:55N 32°43' W 117°14'0 0.0
2017-Sep-18 13:12N 32°43' W 117°14'1 2.9
2017-Sep-18 13:00N 32°43' W 117°13'4 7.5
2017-Sep-18 12:30N 32°39' W 117°14'3 6.8
2017-Sep-18 12:00N 32°37' W 117°17'4 7.8
2017-Sep-18 11:30N 32°38' W 117°21'2 4.9
2017-Sep-18 11:00N 32°38' W 117°24'2 4.8
2017-Sep-18 10:30N 32°39' W 117°27'3 5.2
2017-Sep-18 10:00N 32°39' W 117°30'3 6.4
2017-Sep-18 09:30N 32°39' W 117°34'3 5.2
2017-Sep-18 09:00N 32°39' W 117°37'0 0.2
2017-Sep-18 08:30N 32°39' W 117°37'0 0.1
2017-Sep-18 08:01N 32°40' W 117°37'0 0.2
2017-Sep-18 07:30N 32°39' W 117°37'4 8.1
2017-Sep-18 07:00N 32°35' W 117°36'4 8.0
2017-Sep-18 06:30N 32°32' W 117°35'4 8.0
2017-Sep-18 06:00N 32°28' W 117°33'4 7.1
2017-Sep-18 05:30N 32°25' W 117°32'8 0.8
2017-Sep-17 19:09N 32°17' W 117°32'1 7.2
2017-Sep-17 19:00N 32°17' W 117°33'4 9.1
2017-Sep-17 18:30N 32°20' W 117°36'2 4.4
2017-Sep-17 18:00N 32°22' W 117°37'2 4.3
2017-Sep-17 17:30N 32°22' W 117°35'3 6.4
2017-Sep-17 17:00N 32°24' W 117°32'4 7.2
2017-Sep-17 16:30N 32°28' W 117°32'2 4.2
2017-Sep-17 16:00N 32°30' W 117°33'0 0.5
2017-Sep-17 15:30N 32°30' W 117°33'0 0.6
2017-Sep-17 15:00N 32°30' W 117°33'2 4.8
2017-Sep-17 14:31N 32°32' W 117°35'4 7.2
2017-Sep-17 14:00N 32°35' W 117°36'3 6.2
2017-Sep-17 13:30N 32°38' W 117°37'0 0.6
2017-Sep-17 13:01N 32°38' W 117°37'2 4.3
2017-Sep-17 12:30N 32°39' W 117°39'2 3.9
2017-Sep-17 12:00N 32°40' W 117°42'0 0.6
2017-Sep-17 11:30N 32°39' W 117°42'0 0.6
2017-Sep-17 11:00N 32°39' W 117°42'0 0.7
2017-Sep-17 10:30N 32°39' W 117°42'0 0.6
2017-Sep-17 10:00N 32°39' W 117°43'0 0.7
2017-Sep-17 09:30N 32°39' W 117°43'2 4.4
2017-Sep-17 09:00N 32°39' W 117°41'3 5.8
2017-Sep-17 08:30N 32°39' W 117°37'3 5.9
2017-Sep-17 08:00N 32°39' W 117°34'3 6.2
2017-Sep-17 07:30N 32°39' W 117°30'3 6.2
2017-Sep-17 07:00N 32°38' W 117°26'3 6.1
2017-Sep-17 06:31N 32°38' W 117°23'3 6.1
2017-Sep-17 06:00N 32°38' W 117°19'3 5.9
2017-Sep-17 05:31N 32°37' W 117°16'4 7.4
2017-Sep-17 05:00N 32°41' W 117°14'1 1.8
2017-Sep-17 04:30N 32°42' W 117°14'2 1.1
2017-Sep-17 02:46N 32°43' W 117°14'1 4.5
2017-Sep-17 02:30N 32°42' W 117°14'5 9.4
2017-Sep-17 02:01N 32°38' W 117°15'5 9.7
2017-Sep-17 01:30N 32°36' W 117°20'510.0
2017-Sep-17 01:00N 32°35' W 117°26'510.1
2017-Sep-17 00:30N 32°34' W 117°32'5 9.7
2017-Sep-17 00:00N 32°33' W 117°38'3 6.0
2017-Sep-16 23:30N 32°30' W 117°38'3 6.0
2017-Sep-16 23:00N 32°27' W 117°36'4 7.4
2017-Sep-16 22:30N 32°24' W 117°33'1 1.1
2017-Sep-16 22:01N 32°24' W 117°32'4 7.3
2017-Sep-16 21:30N 32°28' W 117°34'3 6.6
2017-Sep-16 21:00N 32°31' W 117°35'3 6.1
2017-Sep-16 20:30N 32°33' W 117°38'2 4.9
2017-Sep-16 20:00N 32°30' W 117°37'2 3.6
2017-Sep-16 19:30N 32°28' W 117°37'3 6.6
2017-Sep-16 19:00N 32°26' W 117°35'2 3.2
2017-Sep-16 18:30N 32°25' W 117°33'3 5.9
2017-Sep-16 18:00N 32°27' W 117°36'3 6.7
2017-Sep-16 17:30N 32°30' W 117°36'3 5.2
2017-Sep-16 17:01N 32°32' W 117°35'3 6.9
2017-Sep-16 16:30N 32°35' W 117°37'4 8.5
2017-Sep-16 16:00N 32°31' W 117°39'5 9.4
2017-Sep-16 15:31N 32°27' W 117°37'2 3.0
2017-Sep-16 15:00N 32°27' W 117°36'1 2.4
2017-Sep-16 14:30N 32°28' W 117°36'1 2.9
2017-Sep-16 14:00N 32°29' W 117°37'2 4.5
2017-Sep-16 13:30N 32°31' W 117°38'0 0.7
2017-Sep-16 13:00N 32°31' W 117°38'0 0.7
2017-Sep-16 12:30N 32°31' W 117°38'0 0.7
2017-Sep-16 12:01N 32°30' W 117°39'0 0.6
2017-Sep-16 11:31N 32°30' W 117°39'0 0.4
2017-Sep-16 11:00N 32°30' W 117°39'0 0.4
2017-Sep-16 10:30N 32°30' W 117°39'0 0.4
2017-Sep-16 10:00N 32°30' W 117°39'0 0.3
2017-Sep-16 09:30N 32°29' W 117°39'0 0.2
2017-Sep-16 09:00N 32°29' W 117°39'0 0.2
2017-Sep-16 08:30N 32°29' W 117°39'0 0.2
2017-Sep-16 08:00N 32°29' W 117°39'2 3.6
2017-Sep-16 07:30N 32°30' W 117°37'3 6.7
2017-Sep-16 07:00N 32°31' W 117°33'3 6.5
2017-Sep-16 06:30N 32°32' W 117°30'3 6.6
2017-Sep-16 06:01N 32°33' W 117°26'3 6.8
2017-Sep-16 05:30N 32°34' W 117°22'3 6.8
2017-Sep-16 05:00N 32°35' W 117°18'4 7.2
2017-Sep-16 04:30N 32°37' W 117°15'4 8.3
2017-Sep-16 04:00N 32°41' W 117°14'1 1.6
2017-Sep-16 03:30N 32°42' W 117°14'2 1.3
2017-Sep-16 02:17N 32°43' W 117°14'0 0.0
2017-Sep-16 01:59N 32°43' W 117°14'2 3.8
2017-Sep-16 01:30N 32°42' W 117°14'4 8.9
2017-Sep-16 01:00N 32°37' W 117°15'4 8.4
2017-Sep-16 00:30N 32°36' W 117°20'4 8.8
2017-Sep-16 00:01N 32°34' W 117°25'4 8.8
2017-Sep-15 23:30N 32°32' W 117°29'5 9.1
2017-Sep-15 23:00N 32°29' W 117°34'3 5.7
2017-Sep-15 22:30N 32°30' W 117°37'1 1.3
2017-Sep-15 22:01N 32°31' W 117°37'2 4.8
2017-Sep-15 21:30N 32°29' W 117°39'2 4.6
2017-Sep-15 21:00N 32°29' W 117°37'0 0.6
2017-Sep-15 20:31N 32°29' W 117°37'1 1.7
2017-Sep-15 20:00N 32°29' W 117°38'3 5.3
2017-Sep-15 19:30N 32°30' W 117°35'3 6.5
2017-Sep-15 19:00N 32°27' W 117°35'3 5.9
2017-Sep-15 18:30N 32°24' W 117°35'1 3.0
2017-Sep-15 18:01N 32°23' W 117°35'4 8.3
2017-Sep-15 17:30N 32°19' W 117°35'5 2.1
2017-Sep-15 15:10N 32°15' W 117°38'1 8.1
2017-Sep-15 15:00N 32°16' W 117°39'3 5.9
2017-Sep-15 14:30N 32°19' W 117°38'4 7.3
2017-Sep-15 13:59N 32°15' W 117°36'16 2.4
2017-Sep-15 07:20N 32°28' W 117°23'3 7.1
2017-Sep-15 06:57N 32°30' W 117°21'3 7.3
2017-Sep-15 06:30N 32°32' W 117°19'6 7.6
2017-Sep-15 05:41N 32°37' W 117°15'1 7.8
2017-Sep-15 05:31N 32°38' W 117°14'3 6.5
2017-Sep-15 05:00N 32°42' W 117°14'0 0.1
2017-Sep-15 04:30N 32°42' W 117°14'2 1.5
2017-Sep-15 03:19N 32°43' W 117°14'0 0.0
2017-Sep-15 02:50N 32°43' W 117°14'0 0.0
2017-Sep-15 02:10N 32°43' W 117°14'0 0.0
2017-Sep-14 16:37N 32°43' W 117°14'0 0.0
2017-Sep-14 16:25N 32°43' W 117°14'0 0.0
2017-Sep-14 15:59N 32°43' W 117°14'0 0.0
2017-Sep-14 15:21N 32°43' W 117°14'0 0.0
2017-Sep-14 15:00N 32°43' W 117°14'0 0.0
2017-Sep-14 14:23N 32°43' W 117°14'0 0.0
2017-Sep-14 13:56N 32°43' W 117°14'0 0.0
2017-Sep-14 13:14N 32°43' W 117°14'0 0.0
2017-Sep-13 14:35N 32°43' W 117°14'0 1.0
2017-Sep-13 14:30N 32°43' W 117°13'0 0.2
2017-Sep-13 14:01N 32°43' W 117°14'0 0.0
2017-Sep-13 13:30N 32°43' W 117°14'0 0.0
2017-Sep-13 13:00N 32°43' W 117°14'0 0.3
2017-Sep-13 12:26N 32°43' W 117°14'2 4.3
2017-Sep-13 12:00N 32°42' W 117°14'0 0.0
2017-Sep-13 11:30N 32°42' W 117°14'0 0.0
2017-Sep-13 11:00N 32°42' W 117°14'0 0.0
2017-Sep-13 10:30N 32°42' W 117°14'0 0.0
2017-Sep-13 10:00N 32°42' W 117°14'0 0.0
2017-Sep-13 09:30N 32°42' W 117°14'0 0.1
2017-Sep-13 09:00N 32°42' W 117°14'1 2.5
2017-Sep-13 08:31N 32°40' W 117°14'4 7.9
2017-Sep-13 08:01N 32°38' W 117°17'5 9.5
2017-Sep-13 07:30N 32°39' W 117°23'5 9.3
2017-Sep-13 07:01N 32°40' W 117°28'5 9.2
2017-Sep-13 06:30N 32°40' W 117°33'5 9.1
2017-Sep-13 06:00N 32°40' W 117°39'4 8.9
2017-Sep-13 05:30N 32°40' W 117°44'4 8.2
2017-Sep-13 05:00N 32°41' W 117°49'4 8.7
2017-Sep-13 04:30N 32°41' W 117°54'4 8.9
2017-Sep-13 04:00N 32°41' W 117°59'4 8.7
2017-Sep-13 03:30N 32°41' W 118°05'4 9.0
2017-Sep-13 03:00N 32°41' W 118°10'4 9.0
2017-Sep-13 02:30N 32°41' W 118°15'2 3.3
2017-Sep-13 02:00N 32°41' W 118°17'3 6.2
2017-Sep-13 01:30N 32°39' W 118°20'2 3.9
2017-Sep-13 00:58N 32°37' W 118°21'4 7.8
2017-Sep-13 00:29N 32°39' W 118°17'4 6.5
2017-Sep-12 23:54N 32°41' W 118°13'2 4.1
2017-Sep-12 23:30N 32°40' W 118°12'3 6.0
2017-Sep-12 23:00N 32°41' W 118°08'4 8.2
2017-Sep-12 22:30N 32°42' W 118°04'3 5.6
2017-Sep-12 22:00N 32°42' W 118°01'4 7.6
2017-Sep-12 21:30N 32°38' W 117°59'1 2.7
2017-Sep-12 21:00N 32°39' W 117°58'5 9.0
2017-Sep-12 20:30N 32°35' W 117°54'5 9.1
2017-Sep-12 20:01N 32°32' W 117°50'5 9.2
2017-Sep-12 19:31N 32°29' W 117°46'5 9.1
2017-Sep-12 19:01N 32°26' W 117°42'5 9.2
2017-Sep-12 18:31N 32°23' W 117°38'6 9.5
2017-Sep-12 17:54N 32°19' W 117°34'4 2.7
2017-Sep-12 16:16N 32°15' W 117°36'1 1.1
2017-Sep-12 15:18N 32°15' W 117°35'0 0.4
2017-Sep-12 14:52N 32°15' W 117°35'4 4.2
2017-Sep-12 13:57N 32°14' W 117°31'2 3.8
2017-Sep-12 13:28N 32°15' W 117°32'0 0.8
2017-Sep-12 12:59N 32°15' W 117°32'0 0.0
2017-Sep-12 12:30N 32°15' W 117°32'0 0.1
2017-Sep-12 12:00N 32°15' W 117°32'0 0.1
2017-Sep-12 11:15N 32°15' W 117°32'0 0.1
2017-Sep-12 10:49N 32°15' W 117°32'0 0.2
2017-Sep-12 10:30N 32°15' W 117°32'0 0.2
2017-Sep-12 09:35N 32°15' W 117°32'0 0.5
2017-Sep-12 09:28N 32°15' W 117°32'0 0.1
2017-Sep-12 09:00N 32°15' W 117°32'0 0.1
2017-Sep-12 08:30N 32°15' W 117°32'1 1.1
2017-Sep-12 08:00N 32°16' W 117°32'4 7.0
2017-Sep-12 07:30N 32°19' W 117°30'4 7.2
2017-Sep-12 07:00N 32°22' W 117°28'4 7.1
2017-Sep-12 06:30N 32°25' W 117°25'3 6.8
2017-Sep-12 06:00N 32°27' W 117°23'3 7.0
2017-Sep-12 05:30N 32°30' W 117°20'4 7.2
2017-Sep-12 05:00N 32°33' W 117°18'4 7.1
2017-Sep-12 04:30N 32°36' W 117°16'4 7.4
2017-Sep-12 04:00N 32°40' W 117°14'2 4.1
2017-Sep-12 03:30N 32°42' W 117°14'2 1.4
2017-Sep-12 02:12N 32°43' W 117°14'1 4.1
2017-Sep-12 02:00N 32°43' W 117°13'4 8.6
2017-Sep-12 01:30N 32°39' W 117°16'5 9.8
2017-Sep-12 01:00N 32°39' W 117°22'510.0
2017-Sep-12 00:30N 32°39' W 117°27'510.0
2017-Sep-12 00:00N 32°39' W 117°33'510.1
2017-Sep-11 23:30N 32°39' W 117°39'510.3
2017-Sep-11 23:00N 32°39' W 117°45'510.2
2017-Sep-11 22:30N 32°39' W 117°52'5 9.9
2017-Sep-11 22:00N 32°39' W 117°57'5 9.9
2017-Sep-11 21:30N 32°39' W 118°03'510.0
2017-Sep-11 21:00N 32°39' W 118°09'3 6.6
2017-Sep-11 20:30N 32°39' W 118°13'4 8.2
2017-Sep-11 20:00N 32°40' W 118°18'4 7.7
2017-Sep-11 19:30N 32°39' W 118°22'2 5.0
2017-Sep-11 19:00N 32°39' W 118°25'1 2.0
2017-Sep-11 18:30N 32°40' W 118°24'1 1.3
2017-Sep-11 18:00N 32°40' W 118°24'1 2.6
2017-Sep-11 17:30N 32°39' W 118°25'1 1.9
2017-Sep-11 17:00N 32°39' W 118°26'4 7.5
2017-Sep-11 16:30N 32°43' W 118°26'3 6.9
2017-Sep-11 16:00N 32°46' W 118°24'0 0.0
2017-Sep-11 15:30N 32°46' W 118°24'3 5.1
2017-Sep-11 15:01N 32°44' W 118°22'5 9.1
2017-Sep-11 14:30N 32°42' W 118°18'3 5.6
2017-Sep-11 14:00N 32°44' W 118°16'3 6.4
2017-Sep-11 13:30N 32°41' W 118°16'2 4.3
2017-Sep-11 13:00N 32°42' W 118°14'0 0.4
2017-Sep-11 12:31N 32°41' W 118°14'0 0.3
2017-Sep-11 12:00N 32°41' W 118°14'1 2.8
2017-Sep-11 11:30N 32°41' W 118°12'4 6.9
2017-Sep-11 10:59N 32°41' W 118°08'3 7.1
2017-Sep-11 10:30N 32°41' W 118°04'3 7.0
2017-Sep-11 10:00N 32°41' W 118°00'3 6.9
2017-Sep-11 09:30N 32°41' W 117°56'3 6.7
2017-Sep-11 09:00N 32°41' W 117°52'3 6.7
2017-Sep-11 08:30N 32°40' W 117°48'3 6.4
2017-Sep-11 08:00N 32°40' W 117°44'3 6.8
2017-Sep-11 07:31N 32°40' W 117°40'3 6.2
2017-Sep-11 07:00N 32°40' W 117°37'3 6.9
2017-Sep-11 06:30N 32°39' W 117°32'3 6.6
2017-Sep-11 06:00N 32°39' W 117°29'3 6.3
2017-Sep-11 05:30N 32°38' W 117°25'3 6.7
2017-Sep-11 05:00N 32°38' W 117°21'3 6.5
2017-Sep-11 04:30N 32°38' W 117°17'3 6.4
2017-Sep-11 04:00N 32°39' W 117°14'2 4.4
2017-Sep-11 03:30N 32°42' W 117°14'2 3.0
2017-Sep-11 02:54N 32°43' W 117°14'0 0.0
2017-Sep-11 02:30N 32°43' W 117°14'0 0.0
2017-Sep-11 02:00N 32°43' W 117°14'0 0.0
2017-Sep-11 01:28N 32°43' W 117°14'0 0.0
2017-Sep-11 00:42N 32°43' W 117°14'0 0.0
2017-Sep-11 00:26N 32°43' W 117°14'0 0.0
2017-Sep-11 00:00N 32°43' W 117°14'0 0.0
2017-Sep-10 23:28N 32°43' W 117°14'0 0.0
2017-Sep-10 23:00N 32°43' W 117°14'0 0.0
2017-Sep-10 13:05N 32°43' W 117°14'0 0.7
2017-Sep-10 13:00N 32°43' W 117°13'2 3.7
2017-Sep-10 12:30N 32°42' W 117°14'0 0.0
2017-Sep-10 12:00N 32°42' W 117°14'0 0.0
2017-Sep-10 11:31N 32°42' W 117°14'0 0.0
2017-Sep-10 11:00N 32°42' W 117°14'0 0.0
2017-Sep-10 10:30N 32°42' W 117°14'0 0.0
2017-Sep-10 10:00N 32°42' W 117°14'0 0.0
2017-Sep-10 09:30N 32°42' W 117°14'1 2.5
2017-Sep-10 09:00N 32°40' W 117°14'4 7.8
2017-Sep-10 08:30N 32°37' W 117°16'5 9.5
2017-Sep-10 08:00N 32°38' W 117°22'5 9.4
2017-Sep-10 07:30N 32°39' W 117°27'4 8.9
2017-Sep-10 07:00N 32°40' W 117°33'5 9.1
2017-Sep-10 06:30N 32°39' W 117°38'4 8.7
2017-Sep-10 06:00N 32°39' W 117°43'4 8.6
2017-Sep-10 05:30N 32°39' W 117°48'5 9.2
2017-Sep-10 05:00N 32°39' W 117°54'5 9.1
2017-Sep-10 04:31N 32°39' W 117°59'4 8.9
2017-Sep-10 04:00N 32°39' W 118°04'5 9.0
2017-Sep-10 03:30N 32°39' W 118°10'5 9.3
2017-Sep-10 03:00N 32°39' W 118°15'4 9.0
2017-Sep-10 02:30N 32°39' W 118°20'4 7.7
2017-Sep-10 02:00N 32°37' W 118°24'2 3.9
2017-Sep-10 01:30N 32°39' W 118°24'4 7.8
2017-Sep-10 01:00N 32°37' W 118°28'2 4.5
2017-Sep-10 00:30N 32°39' W 118°28'3 5.9
2017-Sep-10 00:00N 32°39' W 118°24'2 4.3
2017-Sep-09 23:30N 32°39' W 118°22'1 1.6
2017-Sep-09 23:00N 32°40' W 118°21'1 2.9
2017-Sep-09 22:30N 32°39' W 118°23'1 1.2
2017-Sep-09 22:00N 32°39' W 118°24'4 8.3
2017-Sep-09 21:30N 32°38' W 118°28'2 4.3
2017-Sep-09 20:57N 32°36' W 118°30'3 6.2
2017-Sep-09 20:30N 32°39' W 118°31'1 2.2
2017-Sep-09 19:50N 32°38' W 118°30'2 5.5
2017-Sep-09 19:30N 32°36' W 118°29'3 6.2
2017-Sep-09 19:00N 32°39' W 118°29'1 1.2
2017-Sep-09 18:30N 32°40' W 118°29'0 0.3
2017-Sep-09 18:00N 32°40' W 118°29'0 0.3
2017-Sep-09 17:30N 32°40' W 118°29'0 0.4
2017-Sep-09 17:00N 32°40' W 118°30'0 0.3
2017-Sep-09 16:30N 32°40' W 118°30'0 0.3
2017-Sep-09 16:00N 32°40' W 118°30'0 0.4
2017-Sep-09 15:30N 32°40' W 118°30'0 0.3
2017-Sep-09 15:01N 32°40' W 118°30'1 2.2
2017-Sep-09 14:29N 32°41' W 118°30'4 8.0
2017-Sep-09 13:59N 32°40' W 118°35'2 4.9
2017-Sep-09 13:30N 32°38' W 118°37'15 7.9
2017-Sep-09 11:37N 32°38' W 118°19'1 8.1
2017-Sep-09 11:28N 32°38' W 118°18'4 8.2
2017-Sep-09 11:00N 32°37' W 118°13'18 8.5
2017-Sep-09 08:57N 32°38' W 117°53'4 8.6
2017-Sep-09 08:30N 32°38' W 117°48'5 8.5
2017-Sep-09 07:57N 32°38' W 117°43'4 8.4
2017-Sep-09 07:30N 32°38' W 117°38'4 8.6
2017-Sep-09 07:00N 32°38' W 117°33'  
Track history (hours):
 
Tides and Currents Weather Stations Pressure Air Temp Water Temp Dewpoint Dewpoint Depression Visibility Wind Speed Wind Dir Waves Ship Positions

First Step

Owner: SCHOBER, ROBERT F, VILLANOVA, PA. More information available from US FCC via Universal Licensing System and Coast Guard Vessel Documentation Center.

Last reported at 2017-Sep-19 06:53 UTC. Time now 2017-Sep-19 17:05 UTC.
Position N 32°24' W 117°22'.

Type: Fishing. MMSI: 367042740.

Date/timePositionNaut miles runAvg speedWind from/ knotsBaromVisibWave heightAir tempDewpointWater temp
2017-Sep-19 06:53N 32°24' W 117°22'3 7.6
2017-Sep-19 06:29N 32°27' W 117°20'5 7.9
2017-Sep-19 05:54N 32°31' W 117°18'3 8.1
2017-Sep-19 05:30N 32°34' W 117°16'4 7.9
2017-Sep-19 05:00N 32°37' W 117°15'4 8.6
2017-Sep-19 04:30N 32°42' W 117°14'1 2.6
2017-Sep-19 03:57N 32°43' W 117°13'1 0.1
2017-Sep-18 15:55N 32°43' W 117°14'0 0.0
2017-Sep-18 15:25N 32°43' W 117°14'0 0.0
2017-Sep-18 14:38N 32°43' W 117°14'0 0.0
2017-Sep-18 14:29N 32°43' W 117°14'0 0.0
2017-Sep-18 13:55N 32°43' W 117°14'0 0.0
2017-Sep-18 13:12N 32°43' W 117°14'1 2.9
2017-Sep-18 13:00N 32°43' W 117°13'4 7.5
2017-Sep-18 12:30N 32°39' W 117°14'3 6.8
2017-Sep-18 12:00N 32°37' W 117°17'4 7.8
2017-Sep-18 11:30N 32°38' W 117°21'2 4.9
2017-Sep-18 11:00N 32°38' W 117°24'2 4.8
2017-Sep-18 10:30N 32°39' W 117°27'3 5.2
2017-Sep-18 10:00N 32°39' W 117°30'3 6.4
2017-Sep-18 09:30N 32°39' W 117°34'3 5.2
2017-Sep-18 09:00N 32°39' W 117°37'0 0.2
2017-Sep-18 08:30N 32°39' W 117°37'0 0.1
2017-Sep-18 08:01N 32°40' W 117°37'0 0.2
2017-Sep-18 07:30N 32°39' W 117°37'4 8.1
2017-Sep-18 07:00N 32°35' W 117°36'4 8.0
2017-Sep-18 06:30N 32°32' W 117°35'4 8.0
2017-Sep-18 06:00N 32°28' W 117°33'4 7.1
2017-Sep-18 05:30N 32°25' W 117°32'8 0.8
2017-Sep-17 19:09N 32°17' W 117°32'1 7.2
2017-Sep-17 19:00N 32°17' W 117°33'4 9.1
2017-Sep-17 18:30N 32°20' W 117°36'2 4.4
2017-Sep-17 18:00N 32°22' W 117°37'2 4.3
2017-Sep-17 17:30N 32°22' W 117°35'3 6.4
2017-Sep-17 17:00N 32°24' W 117°32'4 7.2
2017-Sep-17 16:30N 32°28' W 117°32'2 4.2
2017-Sep-17 16:00N 32°30' W 117°33'0 0.5
2017-Sep-17 15:30N 32°30' W 117°33'0 0.6
2017-Sep-17 15:00N 32°30' W 117°33'2 4.8
2017-Sep-17 14:31N 32°32' W 117°35'4 7.2
2017-Sep-17 14:00N 32°35' W 117°36'3 6.2
2017-Sep-17 13:30N 32°38' W 117°37'0 0.6
2017-Sep-17 13:01N 32°38' W 117°37'2 4.3
2017-Sep-17 12:30N 32°39' W 117°39'2 3.9
2017-Sep-17 12:00N 32°40' W 117°42'0 0.6
2017-Sep-17 11:30N 32°39' W 117°42'0 0.6
2017-Sep-17 11:00N 32°39' W 117°42'0 0.7
2017-Sep-17 10:30N 32°39' W 117°42'0 0.6
2017-Sep-17 10:00N 32°39' W 117°43'0 0.7
2017-Sep-17 09:30N 32°39' W 117°43'2 4.4
2017-Sep-17 09:00N 32°39' W 117°41'3 5.8
2017-Sep-17 08:30N 32°39' W 117°37'3 5.9
2017-Sep-17 08:00N 32°39' W 117°34'3 6.2
2017-Sep-17 07:30N 32°39' W 117°30'3 6.2
2017-Sep-17 07:00N 32°38' W 117°26'3 6.1
2017-Sep-17 06:31N 32°38' W 117°23'3 6.1
2017-Sep-17 06:00N 32°38' W 117°19'3 5.9
2017-Sep-17 05:31N 32°37' W 117°16'4 7.4
2017-Sep-17 05:00N 32°41' W 117°14'1 1.8
2017-Sep-17 04:30N 32°42' W 117°14'2 1.1
2017-Sep-17 02:46N 32°43' W 117°14'1 4.5
2017-Sep-17 02:30N 32°42' W 117°14'5 9.4
2017-Sep-17 02:01N 32°38' W 117°15'5 9.7
2017-Sep-17 01:30N 32°36' W 117°20'510.0
2017-Sep-17 01:00N 32°35' W 117°26'510.1
2017-Sep-17 00:30N 32°34' W 117°32'5 9.7
2017-Sep-17 00:00N 32°33' W 117°38'3 6.0
2017-Sep-16 23:30N 32°30' W 117°38'3 6.0
2017-Sep-16 23:00N 32°27' W 117°36'4 7.4
2017-Sep-16 22:30N 32°24' W 117°33'1 1.1
2017-Sep-16 22:01N 32°24' W 117°32'4 7.3
2017-Sep-16 21:30N 32°28' W 117°34'3 6.6
2017-Sep-16 21:00N 32°31' W 117°35'3 6.1
2017-Sep-16 20:30N 32°33' W 117°38'2 4.9
2017-Sep-16 20:00N 32°30' W 117°37'2 3.6
2017-Sep-16 19:30N 32°28' W 117°37'3 6.6
2017-Sep-16 19:00N 32°26' W 117°35'2 3.2
2017-Sep-16 18:30N 32°25' W 117°33'3 5.9
2017-Sep-16 18:00N 32°27' W 117°36'3 6.7
2017-Sep-16 17:30N 32°30' W 117°36'3 5.2
2017-Sep-16 17:01N 32°32' W 117°35'3 6.9
2017-Sep-16 16:30N 32°35' W 117°37'4 8.5
2017-Sep-16 16:00N 32°31' W 117°39'5 9.4
2017-Sep-16 15:31N 32°27' W 117°37'2 3.0
2017-Sep-16 15:00N 32°27' W 117°36'1 2.4
2017-Sep-16 14:30N 32°28' W 117°36'1 2.9
2017-Sep-16 14:00N 32°29' W 117°37'2 4.5
2017-Sep-16 13:30N 32°31' W 117°38'0 0.7
2017-Sep-16 13:00N 32°31' W 117°38'0 0.7
2017-Sep-16 12:30N 32°31' W 117°38'0 0.7
2017-Sep-16 12:01N 32°30' W 117°39'0 0.6
2017-Sep-16 11:31N 32°30' W 117°39'0 0.4
2017-Sep-16 11:00N 32°30' W 117°39'0 0.4
2017-Sep-16 10:30N 32°30' W 117°39'0 0.4
2017-Sep-16 10:00N 32°30' W 117°39'0 0.3
2017-Sep-16 09:30N 32°29' W 117°39'0 0.2
2017-Sep-16 09:00N 32°29' W 117°39'0 0.2
2017-Sep-16 08:30N 32°29' W 117°39'0 0.2
2017-Sep-16 08:00N 32°29' W 117°39'2 3.6
2017-Sep-16 07:30N 32°30' W 117°37'3 6.7
2017-Sep-16 07:00N 32°31' W 117°33'3 6.5
2017-Sep-16 06:30N 32°32' W 117°30'3 6.6
2017-Sep-16 06:01N 32°33' W 117°26'3 6.8
2017-Sep-16 05:30N 32°34' W 117°22'3 6.8
2017-Sep-16 05:00N 32°35' W 117°18'4 7.2
2017-Sep-16 04:30N 32°37' W 117°15'4 8.3
2017-Sep-16 04:00N 32°41' W 117°14'1 1.6
2017-Sep-16 03:30N 32°42' W 117°14'2 1.3
2017-Sep-16 02:17N 32°43' W 117°14'0 0.0
2017-Sep-16 01:59N 32°43' W 117°14'2 3.8
2017-Sep-16 01:30N 32°42' W 117°14'4 8.9
2017-Sep-16 01:00N 32°37' W 117°15'4 8.4
2017-Sep-16 00:30N 32°36' W 117°20'4 8.8
2017-Sep-16 00:01N 32°34' W 117°25'4 8.8
2017-Sep-15 23:30N 32°32' W 117°29'5 9.1
2017-Sep-15 23:00N 32°29' W 117°34'3 5.7
2017-Sep-15 22:30N 32°30' W 117°37'1 1.3
2017-Sep-15 22:01N 32°31' W 117°37'2 4.8
2017-Sep-15 21:30N 32°29' W 117°39'2 4.6
2017-Sep-15 21:00N 32°29' W 117°37'0 0.6
2017-Sep-15 20:31N 32°29' W 117°37'1 1.7
2017-Sep-15 20:00N 32°29' W 117°38'3 5.3
2017-Sep-15 19:30N 32°30' W 117°35'3 6.5
2017-Sep-15 19:00N 32°27' W 117°35'3 5.9
2017-Sep-15 18:30N 32°24' W 117°35'1 3.0
2017-Sep-15 18:01N 32°23' W 117°35'4 8.3
2017-Sep-15 17:30N 32°19' W 117°35'5 2.1
2017-Sep-15 15:10N 32°15' W 117°38'1 8.1
2017-Sep-15 15:00N 32°16' W 117°39'3 5.9
2017-Sep-15 14:30N 32°19' W 117°38'4 7.3
2017-Sep-15 13:59N 32°15' W 117°36'16 2.4
2017-Sep-15 07:20N 32°28' W 117°23'3 7.1
2017-Sep-15 06:57N 32°30' W 117°21'3 7.3
2017-Sep-15 06:30N 32°32' W 117°19'6 7.6
2017-Sep-15 05:41N 32°37' W 117°15'1 7.8
2017-Sep-15 05:31N 32°38' W 117°14'3 6.5
2017-Sep-15 05:00N 32°42' W 117°14'0 0.1
2017-Sep-15 04:30N 32°42' W 117°14'2 1.5
2017-Sep-15 03:19N 32°43' W 117°14'0 0.0
2017-Sep-15 02:50N 32°43' W 117°14'0 0.0
2017-Sep-15 02:10N 32°43' W 117°14'0 0.0
2017-Sep-14 16:37N 32°43' W 117°14'0 0.0
2017-Sep-14 16:25N 32°43' W 117°14'0 0.0
2017-Sep-14 15:59N 32°43' W 117°14'0 0.0
2017-Sep-14 15:21N 32°43' W 117°14'0 0.0
2017-Sep-14 15:00N 32°43' W 117°14'0 0.0
2017-Sep-14 14:23N 32°43' W 117°14'0 0.0
2017-Sep-14 13:56N 32°43' W 117°14'0 0.0
2017-Sep-14 13:14N 32°43' W 117°14'0 0.0
2017-Sep-13 14:35N 32°43' W 117°14'0 1.0
2017-Sep-13 14:30N 32°43' W 117°13'0 0.2
2017-Sep-13 14:01N 32°43' W 117°14'0 0.0
2017-Sep-13 13:30N 32°43' W 117°14'0 0.0
2017-Sep-13 13:00N 32°43' W 117°14'0 0.3
2017-Sep-13 12:26N 32°43' W 117°14'2 4.3
2017-Sep-13 12:00N 32°42' W 117°14'0 0.0
2017-Sep-13 11:30N 32°42' W 117°14'0 0.0
2017-Sep-13 11:00N 32°42' W 117°14'0 0.0
2017-Sep-13 10:30N 32°42' W 117°14'0 0.0
2017-Sep-13 10:00N 32°42' W 117°14'0 0.0
2017-Sep-13 09:30N 32°42' W 117°14'0 0.1
2017-Sep-13 09:00N 32°42' W 117°14'1 2.5
2017-Sep-13 08:31N 32°40' W 117°14'4 7.9
2017-Sep-13 08:01N 32°38' W 117°17'5 9.5
2017-Sep-13 07:30N 32°39' W 117°23'5 9.3
2017-Sep-13 07:01N 32°40' W 117°28'5 9.2
2017-Sep-13 06:30N 32°40' W 117°33'5 9.1
2017-Sep-13 06:00N 32°40' W 117°39'4 8.9
2017-Sep-13 05:30N 32°40' W 117°44'4 8.2
2017-Sep-13 05:00N 32°41' W 117°49'4 8.7
2017-Sep-13 04:30N 32°41' W 117°54'4 8.9
2017-Sep-13 04:00N 32°41' W 117°59'4 8.7
2017-Sep-13 03:30N 32°41' W 118°05'4 9.0
2017-Sep-13 03:00N 32°41' W 118°10'4 9.0
2017-Sep-13 02:30N 32°41' W 118°15'2 3.3
2017-Sep-13 02:00N 32°41' W 118°17'3 6.2
2017-Sep-13 01:30N 32°39' W 118°20'2 3.9
2017-Sep-13 00:58N 32°37' W 118°21'4 7.8
2017-Sep-13 00:29N 32°39' W 118°17'4 6.5
2017-Sep-12 23:54N 32°41' W 118°13'2 4.1
2017-Sep-12 23:30N 32°40' W 118°12'3 6.0
2017-Sep-12 23:00N 32°41' W 118°08'4 8.2
2017-Sep-12 22:30N 32°42' W 118°04'3 5.6
2017-Sep-12 22:00N 32°42' W 118°01'4 7.6
2017-Sep-12 21:30N 32°38' W 117°59'1 2.7
2017-Sep-12 21:00N 32°39' W 117°58'5 9.0
2017-Sep-12 20:30N 32°35' W 117°54'5 9.1
2017-Sep-12 20:01N 32°32' W 117°50'5 9.2
2017-Sep-12 19:31N 32°29' W 117°46'5 9.1
2017-Sep-12 19:01N 32°26' W 117°42'5 9.2
2017-Sep-12 18:31N 32°23' W 117°38'6 9.5
2017-Sep-12 17:54N 32°19' W 117°34'4 2.7
2017-Sep-12 16:16N 32°15' W 117°36'1 1.1
2017-Sep-12 15:18N 32°15' W 117°35'0 0.4
2017-Sep-12 14:52N 32°15' W 117°35'4 4.2
2017-Sep-12 13:57N 32°14' W 117°31'2 3.8
2017-Sep-12 13:28N 32°15' W 117°32'0 0.8
2017-Sep-12 12:59N 32°15' W 117°32'0 0.0
2017-Sep-12 12:30N 32°15' W 117°32'0 0.1
2017-Sep-12 12:00N 32°15' W 117°32'0 0.1
2017-Sep-12 11:15N 32°15' W 117°32'0 0.1
2017-Sep-12 10:49N 32°15' W 117°32'0 0.2
2017-Sep-12 10:30N 32°15' W 117°32'0 0.2
2017-Sep-12 09:35N 32°15' W 117°32'0 0.5
2017-Sep-12 09:28N 32°15' W 117°32'0 0.1
2017-Sep-12 09:00N 32°15' W 117°32'0 0.1
2017-Sep-12 08:30N 32°15' W 117°32'1 1.1
2017-Sep-12 08:00N 32°16' W 117°32'4 7.0
2017-Sep-12 07:30N 32°19' W 117°30'4 7.2
2017-Sep-12 07:00N 32°22' W 117°28'4 7.1
2017-Sep-12 06:30N 32°25' W 117°25'3 6.8
2017-Sep-12 06:00N 32°27' W 117°23'3 7.0
2017-Sep-12 05:30N 32°30' W 117°20'4 7.2
2017-Sep-12 05:00N 32°33' W 117°18'4 7.1
2017-Sep-12 04:30N 32°36' W 117°16'4 7.4
2017-Sep-12 04:00N 32°40' W 117°14'2 4.1
2017-Sep-12 03:30N 32°42' W 117°14'2 1.4
2017-Sep-12 02:12N 32°43' W 117°14'1 4.1
2017-Sep-12 02:00N 32°43' W 117°13'4 8.6
2017-Sep-12 01:30N 32°39' W 117°16'5 9.8
2017-Sep-12 01:00N 32°39' W 117°22'510.0
2017-Sep-12 00:30N 32°39' W 117°27'510.0
2017-Sep-12 00:00N 32°39' W 117°33'510.1
2017-Sep-11 23:30N 32°39' W 117°39'510.3
2017-Sep-11 23:00N 32°39' W 117°45'510.2
2017-Sep-11 22:30N 32°39' W 117°52'5 9.9
2017-Sep-11 22:00N 32°39' W 117°57'5 9.9
2017-Sep-11 21:30N 32°39' W 118°03'510.0
2017-Sep-11 21:00N 32°39' W 118°09'3 6.6
2017-Sep-11 20:30N 32°39' W 118°13'4 8.2
2017-Sep-11 20:00N 32°40' W 118°18'4 7.7
2017-Sep-11 19:30N 32°39' W 118°22'2 5.0
2017-Sep-11 19:00N 32°39' W 118°25'1 2.0
2017-Sep-11 18:30N 32°40' W 118°24'1 1.3
2017-Sep-11 18:00N 32°40' W 118°24'1 2.6
2017-Sep-11 17:30N 32°39' W 118°25'1 1.9
2017-Sep-11 17:00N 32°39' W 118°26'4 7.5
2017-Sep-11 16:30N 32°43' W 118°26'3 6.9
2017-Sep-11 16:00N 32°46' W 118°24'0 0.0
2017-Sep-11 15:30N 32°46' W 118°24'3 5.1
2017-Sep-11 15:01N 32°44' W 118°22'5 9.1
2017-Sep-11 14:30N 32°42' W 118°18'3 5.6
2017-Sep-11 14:00N 32°44' W 118°16'3 6.4
2017-Sep-11 13:30N 32°41' W 118°16'2 4.3
2017-Sep-11 13:00N 32°42' W 118°14'0 0.4
2017-Sep-11 12:31N 32°41' W 118°14'0 0.3
2017-Sep-11 12:00N 32°41' W 118°14'1 2.8
2017-Sep-11 11:30N 32°41' W 118°12'4 6.9
2017-Sep-11 10:59N 32°41' W 118°08'3 7.1
2017-Sep-11 10:30N 32°41' W 118°04'3 7.0
2017-Sep-11 10:00N 32°41' W 118°00'3 6.9
2017-Sep-11 09:30N 32°41' W 117°56'3 6.7
2017-Sep-11 09:00N 32°41' W 117°52'3 6.7
2017-Sep-11 08:30N 32°40' W 117°48'3 6.4
2017-Sep-11 08:00N 32°40' W 117°44'3 6.8
2017-Sep-11 07:31N 32°40' W 117°40'3 6.2
2017-Sep-11 07:00N 32°40' W 117°37'3 6.9
2017-Sep-11 06:30N 32°39' W 117°32'3 6.6
2017-Sep-11 06:00N 32°39' W 117°29'3 6.3
2017-Sep-11 05:30N 32°38' W 117°25'3 6.7
2017-Sep-11 05:00N 32°38' W 117°21'3 6.5
2017-Sep-11 04:30N 32°38' W 117°17'3 6.4
2017-Sep-11 04:00N 32°39' W 117°14'2 4.4
2017-Sep-11 03:30N 32°42' W 117°14'2 3.0
2017-Sep-11 02:54N 32°43' W 117°14'0 0.0
2017-Sep-11 02:30N 32°43' W 117°14'0 0.0
2017-Sep-11 02:00N 32°43' W 117°14'0 0.0
2017-Sep-11 01:28N 32°43' W 117°14'0 0.0
2017-Sep-11 00:42N 32°43' W 117°14'0 0.0
2017-Sep-11 00:26N 32°43' W 117°14'0 0.0
2017-Sep-11 00:00N 32°43' W 117°14'0 0.0
2017-Sep-10 23:28N 32°43' W 117°14'0 0.0
2017-Sep-10 23:00N 32°43' W 117°14'0 0.0
2017-Sep-10 13:05N 32°43' W 117°14'0 0.7
2017-Sep-10 13:00N 32°43' W 117°13'2 3.7
2017-Sep-10 12:30N 32°42' W 117°14'0 0.0
2017-Sep-10 12:00N 32°42' W 117°14'0 0.0
2017-Sep-10 11:31N 32°42' W 117°14'0 0.0
2017-Sep-10 11:00N 32°42' W 117°14'0 0.0
2017-Sep-10 10:30N 32°42' W 117°14'0 0.0
2017-Sep-10 10:00N 32°42' W 117°14'0 0.0
2017-Sep-10 09:30N 32°42' W 117°14'1 2.5
2017-Sep-10 09:00N 32°40' W 117°14'4 7.8
2017-Sep-10 08:30N 32°37' W 117°16'5 9.5
2017-Sep-10 08:00N 32°38' W 117°22'5 9.4
2017-Sep-10 07:30N 32°39' W 117°27'4 8.9
2017-Sep-10 07:00N 32°40' W 117°33'5 9.1
2017-Sep-10 06:30N 32°39' W 117°38'4 8.7
2017-Sep-10 06:00N 32°39' W 117°43'4 8.6
2017-Sep-10 05:30N 32°39' W 117°48'5 9.2
2017-Sep-10 05:00N 32°39' W 117°54'5 9.1
2017-Sep-10 04:31N 32°39' W 117°59'4 8.9
2017-Sep-10 04:00N 32°39' W 118°04'5 9.0
2017-Sep-10 03:30N 32°39' W 118°10'5 9.3
2017-Sep-10 03:00N 32°39' W 118°15'4 9.0
2017-Sep-10 02:30N 32°39' W 118°20'4 7.7
2017-Sep-10 02:00N 32°37' W 118°24'2 3.9
2017-Sep-10 01:30N 32°39' W 118°24'4 7.8
2017-Sep-10 01:00N 32°37' W 118°28'2 4.5
2017-Sep-10 00:30N 32°39' W 118°28'3 5.9
2017-Sep-10 00:00N 32°39' W 118°24'2 4.3
2017-Sep-09 23:30N 32°39' W 118°22'1 1.6
2017-Sep-09 23:00N 32°40' W 118°21'1 2.9
2017-Sep-09 22:30N 32°39' W 118°23'1 1.2
2017-Sep-09 22:00N 32°39' W 118°24'4 8.3
2017-Sep-09 21:30N 32°38' W 118°28'2 4.3
2017-Sep-09 20:57N 32°36' W 118°30'3 6.2
2017-Sep-09 20:30N 32°39' W 118°31'1 2.2
2017-Sep-09 19:50N 32°38' W 118°30'2 5.5
2017-Sep-09 19:30N 32°36' W 118°29'3 6.2
2017-Sep-09 19:00N 32°39' W 118°29'1 1.2
2017-Sep-09 18:30N 32°40' W 118°29'0 0.3
2017-Sep-09 18:00N 32°40' W 118°29'0 0.3
2017-Sep-09 17:30N 32°40' W 118°29'0 0.4
2017-Sep-09 17:00N 32°40' W 118°30'0 0.3
2017-Sep-09 16:30N 32°40' W 118°30'0 0.3
2017-Sep-09 16:00N 32°40' W 118°30'0 0.4
2017-Sep-09 15:30N 32°40' W 118°30'0 0.3
2017-Sep-09 15:01N 32°40' W 118°30'1 2.2
2017-Sep-09 14:29N 32°41' W 118°30'4 8.0
2017-Sep-09 13:59N 32°40' W 118°35'2 4.9
2017-Sep-09 13:30N 32°38' W 118°37'15 7.9
2017-Sep-09 11:37N 32°38' W 118°19'1 8.1
2017-Sep-09 11:28N 32°38' W 118°18'4 8.2
2017-Sep-09 11:00N 32°37' W 118°13'18 8.5
2017-Sep-09 08:57N 32°38' W 117°53'4 8.6
2017-Sep-09 08:30N 32°38' W 117°48'5 8.5
2017-Sep-09 07:57N 32°38' W 117°43'4 8.4
2017-Sep-09 07:30N 32°38' W 117°38'4 8.6
2017-Sep-09 07:00N 32°38' W 117°33'  

Dump ship's entire track history